createdAt,value
2023-05-21T00:01:48.602Z,11.60
2023-05-21T00:04:17.833Z,11.59
2023-05-21T00:06:45.890Z,11.59
2023-05-21T00:09:14.061Z,11.59
2023-05-21T00:11:42.174Z,11.59
2023-05-21T00:14:10.280Z,11.61
2023-05-21T00:16:38.477Z,11.58
2023-05-21T00:19:06.823Z,11.53
2023-05-21T00:21:34.943Z,11.52
2023-05-21T00:24:03.024Z,11.50
2023-05-21T00:26:31.580Z,11.55
2023-05-21T00:29:00.117Z,11.60
2023-05-21T00:31:28.499Z,11.67
2023-05-21T00:33:56.758Z,11.70
2023-05-21T00:36:25.353Z,11.70
2023-05-21T00:38:53.574Z,11.60
2023-05-21T00:41:23.221Z,11.60
2023-05-21T00:43:52.932Z,11.51
2023-05-21T00:46:22.727Z,11.45
2023-05-21T00:48:51.331Z,11.48
2023-05-21T00:51:21.817Z,11.55
2023-05-21T00:53:52.968Z,11.62
2023-05-21T00:56:23.017Z,11.73
2023-05-21T00:58:54.426Z,11.79
2023-05-21T01:01:25.775Z,11.82
2023-05-21T01:03:58.038Z,11.79
2023-05-21T01:06:26.561Z,11.78
2023-05-21T01:08:58.723Z,11.71
2023-05-21T01:11:39.083Z,11.77
2023-05-21T01:14:11.173Z,11.79
2023-05-21T01:16:42.251Z,11.78
2023-05-21T01:19:14.343Z,11.80
2023-05-21T01:21:47.242Z,11.85
2023-05-21T01:24:16.652Z,11.90
2023-05-21T01:26:46.707Z,11.92
2023-05-21T01:29:15.052Z,11.98
2023-05-21T01:31:56.731Z,12.01
2023-05-21T01:34:38.519Z,11.93
2023-05-21T01:37:17.569Z,11.90
2023-05-21T01:39:55.573Z,11.94
2023-05-21T01:42:25.453Z,12.02
2023-05-21T01:44:55.946Z,12.08
2023-05-21T01:47:26.253Z,12.15
2023-05-21T01:49:54.659Z,12.14
2023-05-21T01:52:23.059Z,12.13
2023-05-21T01:54:51.463Z,12.13
2023-05-21T01:57:19.656Z,12.14
2023-05-21T01:59:47.966Z,12.15
2023-05-21T02:02:16.257Z,12.17
2023-05-21T02:04:46.229Z,12.18
2023-05-21T02:07:18.419Z,12.23
2023-05-21T02:09:46.469Z,12.21
2023-05-21T02:12:14.516Z,12.22
2023-05-21T02:14:42.595Z,12.21
2023-05-21T02:17:11.005Z,12.22
2023-05-21T02:19:39.089Z,12.29
2023-05-21T02:22:07.212Z,12.31
2023-05-21T02:24:35.435Z,12.32
2023-05-21T02:27:03.660Z,12.34
2023-05-21T02:29:32.071Z,12.38
2023-05-21T02:32:00.131Z,12.41
2023-05-21T02:34:31.071Z,12.41
2023-05-21T02:36:59.426Z,12.31
2023-05-21T02:39:27.547Z,12.19
2023-05-21T02:41:56.084Z,12.12
2023-05-21T02:44:24.161Z,12.08
2023-05-21T02:46:52.312Z,12.08
2023-05-21T02:49:20.727Z,12.05
2023-05-21T02:51:49.396Z,12.02
2023-05-21T02:54:17.491Z,11.96
2023-05-21T02:56:45.678Z,11.84
2023-05-21T02:59:13.845Z,11.78
2023-05-21T03:01:42.240Z,11.72
2023-05-21T03:04:10.806Z,11.71
2023-05-21T03:06:38.796Z,11.74
2023-05-21T03:09:06.824Z,11.77
2023-05-21T03:11:34.912Z,11.82
2023-05-21T03:14:02.932Z,11.81
2023-05-21T03:16:34.736Z,11.82
2023-05-21T03:19:03.112Z,11.82
2023-05-21T03:21:32.329Z,11.80
2023-05-21T03:24:00.633Z,11.79
2023-05-21T03:26:29.776Z,11.72
2023-05-21T03:28:58.681Z,11.68
2023-05-21T03:31:27.573Z,11.71
2023-05-21T03:34:08.672Z,11.73
2023-05-21T03:36:36.857Z,11.78
2023-05-21T03:39:04.934Z,11.75
2023-05-21T03:41:34.470Z,11.72
2023-05-21T03:44:14.956Z,11.66
2023-05-21T03:46:56.336Z,11.72
2023-05-21T03:49:33.769Z,11.79
2023-05-21T03:52:01.810Z,11.85
2023-05-21T03:54:29.946Z,11.88
2023-05-21T03:57:01.620Z,11.91
2023-05-21T03:59:30.432Z,11.99
2023-05-21T04:02:00.420Z,12.09
2023-05-21T04:04:29.760Z,12.17
2023-05-21T04:06:58.055Z,12.26
2023-05-21T04:09:26.197Z,12.34
2023-05-21T04:11:54.412Z,12.44
2023-05-21T04:14:23.640Z,12.50
2023-05-21T04:16:52.905Z,12.56
2023-05-21T04:19:22.039Z,12.61
2023-05-21T04:21:50.201Z,12.72
2023-05-21T04:24:19.709Z,12.99
2023-05-21T04:27:01.250Z,13.32
2023-05-21T04:29:30.069Z,13.64
2023-05-21T04:31:58.535Z,13.98
2023-05-21T04:34:26.564Z,14.41
2023-05-21T04:36:54.690Z,14.78
2023-05-21T04:39:22.713Z,14.97
2023-05-21T04:41:50.835Z,15.22
2023-05-21T04:44:19.635Z,15.31
2023-05-21T04:46:49.103Z,15.49
2023-05-21T04:49:18.899Z,15.67
2023-05-21T04:51:47.230Z,15.81
2023-05-21T04:54:15.678Z,15.85
2023-05-21T04:56:44.596Z,16.07
2023-05-21T04:59:12.722Z,16.24
2023-05-21T05:01:41.365Z,16.41
2023-05-21T05:04:09.677Z,16.43
2023-05-21T05:06:37.789Z,16.66
2023-05-21T05:09:06.201Z,16.76
2023-05-21T05:11:34.259Z,16.85
2023-05-21T05:14:02.601Z,16.98
2023-05-21T05:16:31.208Z,17.29
2023-05-21T05:18:59.367Z,17.35
2023-05-21T05:21:27.688Z,17.47
2023-05-21T05:23:56.182Z,17.63
2023-05-21T05:26:27.049Z,17.53
2023-05-21T05:28:55.978Z,17.65
2023-05-21T05:31:25.146Z,17.98
2023-05-21T05:33:53.959Z,18.09
2023-05-21T05:36:23.156Z,18.28
2023-05-21T05:38:51.654Z,18.37
2023-05-21T05:41:19.694Z,18.47
2023-05-21T05:43:48.619Z,18.54
2023-05-21T05:46:16.921Z,18.60
2023-05-21T05:48:45.062Z,18.73
2023-05-21T05:51:13.438Z,18.66
2023-05-21T05:53:41.629Z,18.72
2023-05-21T05:56:09.763Z,18.97
2023-05-21T05:58:37.961Z,19.13
2023-05-21T06:01:17.752Z,19.33
2023-05-21T06:03:46.315Z,19.54
2023-05-21T06:06:17.316Z,19.74
2023-05-21T06:08:46.506Z,19.89
2023-05-21T06:11:17.371Z,20.05
2023-05-21T06:13:46.189Z,20.26
2023-05-21T06:16:16.048Z,20.36
2023-05-21T06:18:44.522Z,20.56
2023-05-21T06:21:12.813Z,20.54
2023-05-21T06:23:40.892Z,20.57
2023-05-21T06:26:09.208Z,20.68
2023-05-21T06:28:37.364Z,20.83
2023-05-21T06:31:06.088Z,21.00
2023-05-21T06:33:34.771Z,21.13
2023-05-21T06:36:03.043Z,21.17
2023-05-21T06:38:31.635Z,21.19
2023-05-21T06:41:01.007Z,21.19
2023-05-21T06:43:49.936Z,21.24
2023-05-21T06:46:44.622Z,21.27
2023-05-21T06:49:14.460Z,21.32
2023-05-21T06:51:43.877Z,21.37
2023-05-21T06:54:12.393Z,21.41
2023-05-21T06:56:41.211Z,21.38
2023-05-21T06:59:09.485Z,21.35
2023-05-21T07:01:42.685Z,21.30
2023-05-21T07:04:11.292Z,21.33
2023-05-21T07:06:40.991Z,21.25
2023-05-21T07:09:10.410Z,21.27
2023-05-21T07:11:39.092Z,21.34
2023-05-21T07:14:09.339Z,21.44
2023-05-21T07:16:37.554Z,21.47
2023-05-21T07:19:06.032Z,21.53
2023-05-21T07:21:34.349Z,21.58
2023-05-21T07:24:02.739Z,21.68
2023-05-21T07:26:30.971Z,21.66
2023-05-21T07:28:59.723Z,21.76
2023-05-21T07:31:28.220Z,21.81
2023-05-21T07:33:56.617Z,21.88
2023-05-21T07:36:28.186Z,21.91
2023-05-21T07:38:56.403Z,21.89
2023-05-21T07:41:24.633Z,21.87
2023-05-21T07:43:52.906Z,21.90
2023-05-21T07:46:21.273Z,21.88
2023-05-21T07:48:51.651Z,21.80
2023-05-21T07:51:19.704Z,21.83
2023-05-21T07:53:47.810Z,21.91
2023-05-21T07:56:16.919Z,21.90
2023-05-21T07:58:45.981Z,22.01
2023-05-21T08:01:14.412Z,22.14
2023-05-21T08:03:42.622Z,22.13
2023-05-21T08:06:10.886Z,22.14
2023-05-21T08:08:39.086Z,22.27
2023-05-21T08:11:07.314Z,22.38
2023-05-21T08:13:35.963Z,22.45
2023-05-21T08:16:06.122Z,22.48
2023-05-21T08:18:34.413Z,22.51
2023-05-21T08:21:02.470Z,22.59
2023-05-21T08:23:30.690Z,22.58
2023-05-21T08:26:00.221Z,22.59
2023-05-21T08:28:29.089Z,22.57
2023-05-21T08:30:58.594Z,22.69
2023-05-21T08:33:27.997Z,22.72
2023-05-21T08:35:56.180Z,22.67
2023-05-21T08:38:32.447Z,22.63
2023-05-21T08:41:14.103Z,22.76
2023-05-21T08:43:49.265Z,22.91
2023-05-21T08:46:23.475Z,23.00
2023-05-21T08:48:56.077Z,22.99
2023-05-21T08:51:26.931Z,22.97
2023-05-21T08:53:57.145Z,22.97
2023-05-21T08:56:26.711Z,22.99
2023-05-21T08:58:56.821Z,22.88
2023-05-21T09:01:28.219Z,23.03
2023-05-21T09:04:19.499Z,23.08
2023-05-21T09:06:50.477Z,23.01
2023-05-21T09:09:34.290Z,22.97
2023-05-21T09:12:02.713Z,23.04
2023-05-21T09:14:31.735Z,23.14
2023-05-21T09:17:25.965Z,23.41
2023-05-21T09:20:17.632Z,23.44
2023-05-21T09:22:51.731Z,23.29
2023-05-21T09:25:28.302Z,23.30
2023-05-21T09:27:58.485Z,23.45
2023-05-21T09:30:30.056Z,23.68
2023-05-21T09:33:00.290Z,23.60
2023-05-21T09:35:28.763Z,23.47
2023-05-21T09:37:57.725Z,23.61
2023-05-21T09:40:26.333Z,23.74
2023-05-21T09:42:55.342Z,23.88
2023-05-21T09:45:25.775Z,24.05
2023-05-21T09:47:56.597Z,24.18
2023-05-21T09:50:29.808Z,24.16
2023-05-21T09:52:58.662Z,24.20
2023-05-21T09:55:27.117Z,24.21
2023-05-21T09:57:55.544Z,24.10
2023-05-21T10:00:25.285Z,24.08
2023-05-21T10:02:58.373Z,24.08
2023-05-21T10:05:28.813Z,24.11
2023-05-21T10:08:02.644Z,24.17
2023-05-21T10:10:32.492Z,24.28
2023-05-21T10:13:10.345Z,24.21
2023-05-21T10:15:45.212Z,24.27
2023-05-21T10:18:13.856Z,24.28
2023-05-21T10:20:43.149Z,24.44
2023-05-21T10:23:13.186Z,24.66
2023-05-21T10:25:42.039Z,24.64
2023-05-21T10:28:10.787Z,24.70
2023-05-21T10:30:39.500Z,24.86
2023-05-21T10:33:08.110Z,24.98
2023-05-21T10:35:37.274Z,25.00
2023-05-21T10:38:08.212Z,24.85
2023-05-21T10:40:36.766Z,24.80
2023-05-21T10:43:20.576Z,24.98
2023-05-21T10:45:54.661Z,24.95
2023-05-21T10:48:55.130Z,25.04
2023-05-21T10:51:35.268Z,24.92
2023-05-21T10:54:25.053Z,24.97
2023-05-21T10:57:12.037Z,25.06
2023-05-21T10:59:42.458Z,25.16
2023-05-21T11:02:13.874Z,25.20
2023-05-21T11:04:45.310Z,25.27
2023-05-21T11:07:13.850Z,25.40
2023-05-21T11:09:42.014Z,25.41
2023-05-21T11:12:10.362Z,25.33
2023-05-21T11:14:40.582Z,25.39
2023-05-21T11:17:09.426Z,25.45
2023-05-21T11:19:41.969Z,25.38
2023-05-21T11:22:24.734Z,25.34
2023-05-21T11:24:54.879Z,25.28
2023-05-21T11:27:42.569Z,25.54
2023-05-21T11:30:16.508Z,25.65
2023-05-21T11:33:14.080Z,25.57
2023-05-21T11:35:45.401Z,25.49
2023-05-21T11:38:13.458Z,25.58
2023-05-21T11:40:55.587Z,25.54
2023-05-21T11:43:23.896Z,25.56
2023-05-21T11:45:53.173Z,25.54
2023-05-21T11:48:27.056Z,25.67
2023-05-21T11:50:57.596Z,25.70
2023-05-21T11:53:25.907Z,25.62
2023-05-21T11:55:57.802Z,25.64
2023-05-21T11:58:26.844Z,25.69
2023-05-21T12:00:54.984Z,25.66
2023-05-21T12:03:26.990Z,25.47
2023-05-21T12:05:56.085Z,25.26
2023-05-21T12:08:27.785Z,25.03
2023-05-21T12:11:00.365Z,24.92
2023-05-21T12:13:29.109Z,24.83
2023-05-21T12:15:57.656Z,24.86
2023-05-21T12:18:26.573Z,24.98
2023-05-21T12:20:54.704Z,25.04
2023-05-21T12:23:26.553Z,25.16
2023-05-21T12:25:55.067Z,25.40
2023-05-21T12:28:24.874Z,25.48
2023-05-21T12:30:53.718Z,25.56
2023-05-21T12:33:25.013Z,25.63
2023-05-21T12:35:53.523Z,25.85
2023-05-21T12:38:21.691Z,26.09
2023-05-21T12:40:49.898Z,26.20
2023-05-21T12:43:18.001Z,26.30
2023-05-21T12:45:46.611Z,26.25
2023-05-21T12:48:14.822Z,26.33
2023-05-21T12:50:43.209Z,26.43
2023-05-21T12:53:12.477Z,26.50
2023-05-21T12:55:40.852Z,26.53
2023-05-21T12:58:14.086Z,26.54
2023-05-21T13:00:44.064Z,26.54
2023-05-21T13:03:12.615Z,26.46
2023-05-21T13:05:41.856Z,26.51
2023-05-21T13:08:10.848Z,26.54
2023-05-21T13:10:39.294Z,26.61
2023-05-21T13:13:07.747Z,26.73
2023-05-21T13:15:35.865Z,26.98
2023-05-21T13:18:04.395Z,27.25
2023-05-21T13:20:32.422Z,27.54
2023-05-21T13:23:02.976Z,27.55
2023-05-21T13:25:33.217Z,27.58
2023-05-21T13:28:10.287Z,27.62
2023-05-21T13:30:38.732Z,27.56
2023-05-21T13:33:07.089Z,27.47
2023-05-21T13:35:35.509Z,27.17
2023-05-21T13:38:03.607Z,26.98
2023-05-21T13:40:31.702Z,26.80
2023-05-21T13:42:59.964Z,26.61
2023-05-21T13:45:29.349Z,26.48
2023-05-21T13:47:58.444Z,26.32
2023-05-21T13:50:27.067Z,26.27
2023-05-21T13:52:55.429Z,26.34
2023-05-21T13:55:23.512Z,26.42
2023-05-21T13:57:51.939Z,26.43
2023-05-21T14:00:19.969Z,26.44
2023-05-21T14:02:48.244Z,26.44
2023-05-21T14:05:16.491Z,26.32
2023-05-21T14:07:45.534Z,26.22
2023-05-21T14:10:14.042Z,26.14
2023-05-21T14:12:42.156Z,26.02
2023-05-21T14:15:10.878Z,25.92
2023-05-21T14:17:40.752Z,25.77
2023-05-21T14:20:09.937Z,25.68
2023-05-21T14:22:38.873Z,25.67
2023-05-21T14:25:07.451Z,25.20
2023-05-21T14:27:37.987Z,24.61
2023-05-21T14:30:07.095Z,24.14
2023-05-21T14:32:35.320Z,24.02
2023-05-21T14:35:04.286Z,23.99
2023-05-21T14:37:32.348Z,24.37
2023-05-21T14:40:00.720Z,24.60
2023-05-21T14:42:28.768Z,24.68
2023-05-21T14:44:56.900Z,24.51
2023-05-21T14:47:25.075Z,24.47
2023-05-21T14:49:53.172Z,24.57
2023-05-21T14:52:21.618Z,24.66
2023-05-21T14:54:49.628Z,24.79
2023-05-21T14:57:17.744Z,24.89
2023-05-21T14:59:45.876Z,24.91
2023-05-21T15:02:14.097Z,25.07
2023-05-21T15:04:42.176Z,25.11
2023-05-21T15:07:10.660Z,24.99
2023-05-21T15:09:38.879Z,24.99
2023-05-21T15:12:07.093Z,24.89
2023-05-21T15:14:35.126Z,24.72
2023-05-21T15:17:03.722Z,24.59
2023-05-21T15:19:31.889Z,24.80
2023-05-21T15:22:00.100Z,25.09
2023-05-21T15:24:28.281Z,25.27
2023-05-21T15:26:56.278Z,25.47
2023-05-21T15:29:24.772Z,25.46
2023-05-21T15:31:52.820Z,25.59
2023-05-21T15:34:20.988Z,25.61
2023-05-21T15:36:49.068Z,25.50
2023-05-21T15:39:17.197Z,25.45
2023-05-21T15:41:45.273Z,25.52
2023-05-21T15:44:13.409Z,25.48
2023-05-21T15:46:41.861Z,25.44
2023-05-21T15:49:10.069Z,25.23
2023-05-21T15:51:38.735Z,24.99
2023-05-21T15:54:06.760Z,24.75
2023-05-21T15:56:34.797Z,24.56
2023-05-21T15:59:04.122Z,24.37
2023-05-21T16:01:32.629Z,24.25
2023-05-21T16:04:03.473Z,24.07
2023-05-21T16:06:31.776Z,24.04
2023-05-21T16:09:00.461Z,24.09
2023-05-21T16:11:28.916Z,24.28
2023-05-21T16:13:57.375Z,24.61
2023-05-21T16:16:25.652Z,24.92
2023-05-21T16:18:54.307Z,25.09
2023-05-21T16:21:23.340Z,25.08
2023-05-21T16:23:51.489Z,25.15
2023-05-21T16:26:19.553Z,25.22
2023-05-21T16:28:47.599Z,25.44
2023-05-21T16:31:15.746Z,25.61
2023-05-21T16:33:43.995Z,25.82
2023-05-21T16:36:11.971Z,25.98
2023-05-21T16:38:40.301Z,26.23
2023-05-21T16:41:08.487Z,26.65
2023-05-21T16:43:37.354Z,26.93
2023-05-21T16:46:05.623Z,27.16
2023-05-21T16:48:34.310Z,27.26
2023-05-21T16:51:03.921Z,27.41
2023-05-21T16:53:31.995Z,27.52
2023-05-21T16:56:00.071Z,27.59
2023-05-21T16:58:28.159Z,27.65
2023-05-21T17:00:56.521Z,27.88
2023-05-21T17:03:24.729Z,27.94
2023-05-21T17:05:53.114Z,27.76
2023-05-21T17:08:21.110Z,27.39
2023-05-21T17:10:49.377Z,26.82
2023-05-21T17:13:22.197Z,26.29
2023-05-21T17:15:51.742Z,25.58
2023-05-21T17:18:20.060Z,24.87
2023-05-21T17:20:48.138Z,24.42
2023-05-21T17:23:16.434Z,24.06
2023-05-21T17:25:44.645Z,23.77
2023-05-21T17:28:12.657Z,23.44
2023-05-21T17:30:40.917Z,23.17
2023-05-21T17:33:10.497Z,22.95
2023-05-21T17:35:39.172Z,22.81
2023-05-21T17:38:07.652Z,22.70
2023-05-21T17:40:36.097Z,22.49
2023-05-21T17:43:05.246Z,22.30
2023-05-21T17:45:33.530Z,22.22
2023-05-21T17:48:01.763Z,22.22
2023-05-21T17:50:30.042Z,22.05
2023-05-21T17:52:58.084Z,21.80
2023-05-21T17:55:26.136Z,21.44
2023-05-21T17:57:54.267Z,21.22
2023-05-21T18:00:22.450Z,21.03
2023-05-21T18:02:50.551Z,20.86
2023-05-21T18:05:18.880Z,20.67
2023-05-21T18:07:46.943Z,20.46
2023-05-21T18:10:15.721Z,20.20
2023-05-21T18:12:46.401Z,20.05
2023-05-21T18:15:15.514Z,19.86
2023-05-21T18:17:44.499Z,19.67
2023-05-21T18:20:13.726Z,19.50
2023-05-21T18:22:42.020Z,19.25
2023-05-21T18:25:10.410Z,19.04
2023-05-21T18:27:38.552Z,18.90
2023-05-21T18:30:07.371Z,18.74
2023-05-21T18:32:39.054Z,18.60
2023-05-21T18:35:11.452Z,18.49
2023-05-21T18:37:42.672Z,18.39
2023-05-21T18:40:12.269Z,18.29
2023-05-21T18:42:40.826Z,18.20
2023-05-21T18:45:10.484Z,18.07
2023-05-21T18:47:40.443Z,17.91
2023-05-21T18:50:13.997Z,17.72
2023-05-21T18:52:42.293Z,17.55
2023-05-21T18:55:10.463Z,17.40
2023-05-21T18:57:39.576Z,17.25
2023-05-21T19:00:09.857Z,17.08
2023-05-21T19:02:38.654Z,16.98
2023-05-21T19:05:07.837Z,16.86
2023-05-21T19:07:36.540Z,16.73
2023-05-21T19:10:04.712Z,16.64
2023-05-21T19:12:34.179Z,16.59
2023-05-21T19:15:03.284Z,16.54
2023-05-21T19:17:31.938Z,16.42
2023-05-21T19:20:00.082Z,16.39
2023-05-21T19:22:28.867Z,16.33
2023-05-21T19:24:57.292Z,16.28
2023-05-21T19:27:25.858Z,16.18
2023-05-21T19:29:54.014Z,16.18
2023-05-21T19:32:23.771Z,16.14
2023-05-21T19:34:52.397Z,16.12
2023-05-21T19:37:20.448Z,16.11
2023-05-21T19:39:50.384Z,16.05
2023-05-21T19:42:19.969Z,16.00
2023-05-21T19:44:48.070Z,15.83
2023-05-21T19:47:16.363Z,15.78
2023-05-21T19:49:44.581Z,15.72
2023-05-21T19:52:12.903Z,15.68
2023-05-21T19:54:41.147Z,15.65
2023-05-21T19:57:12.164Z,15.62
2023-05-21T19:59:41.000Z,15.61
2023-05-21T20:02:17.098Z,15.61
2023-05-21T20:04:45.225Z,15.57
2023-05-21T20:07:13.491Z,15.58
2023-05-21T20:09:41.854Z,15.59
2023-05-21T20:12:09.984Z,15.60
2023-05-21T20:14:38.070Z,15.61
2023-05-21T20:17:07.353Z,15.56
2023-05-21T20:19:36.085Z,15.48
2023-05-21T20:22:04.320Z,15.44
2023-05-21T20:24:32.332Z,15.39
2023-05-21T20:27:01.861Z,15.29
2023-05-21T20:29:30.185Z,15.25
2023-05-21T20:31:58.314Z,15.22
2023-05-21T20:34:27.558Z,15.18
2023-05-21T20:36:58.584Z,15.13
2023-05-21T20:39:29.910Z,15.06
2023-05-21T20:41:58.679Z,15.03
2023-05-21T20:44:27.654Z,14.99
2023-05-21T20:46:55.782Z,14.96
2023-05-21T20:49:25.038Z,14.94
2023-05-21T20:51:53.836Z,14.90
2023-05-21T20:54:22.377Z,14.85
2023-05-21T20:56:50.934Z,14.83
2023-05-21T20:59:19.088Z,14.77
2023-05-21T21:01:47.239Z,14.69
2023-05-21T21:04:16.210Z,14.62
2023-05-21T21:06:46.668Z,14.50
2023-05-21T21:09:14.771Z,14.42
2023-05-21T21:11:42.886Z,14.37
2023-05-21T21:14:11.110Z,14.28
2023-05-21T21:16:39.344Z,14.08
2023-05-21T21:19:07.510Z,14.03
2023-05-21T21:21:36.143Z,13.94
2023-05-21T21:24:04.665Z,13.92
2023-05-21T21:26:32.796Z,13.88
2023-05-21T21:29:00.997Z,13.84
2023-05-21T21:31:31.173Z,13.80
2023-05-21T21:33:59.300Z,13.82
2023-05-21T21:36:29.016Z,13.83
2023-05-21T21:38:57.551Z,13.84
2023-05-21T21:41:29.169Z,13.83
2023-05-21T21:43:57.231Z,13.83
2023-05-21T21:46:26.415Z,13.86
2023-05-21T21:48:54.705Z,13.87
2023-05-21T21:51:23.616Z,13.86
2023-05-21T21:53:51.793Z,13.83
2023-05-21T21:56:19.977Z,13.78
2023-05-21T21:58:48.211Z,13.71
2023-05-21T22:01:16.494Z,13.65
2023-05-21T22:03:44.680Z,13.61
2023-05-21T22:06:12.953Z,13.60
2023-05-21T22:08:41.131Z,13.60
2023-05-21T22:11:09.273Z,13.51
2023-05-21T22:13:37.804Z,13.48
2023-05-21T22:16:07.376Z,13.45
2023-05-21T22:18:40.405Z,13.42
2023-05-21T22:21:10.912Z,13.39
2023-05-21T22:23:39.255Z,13.38
2023-05-21T22:26:07.536Z,13.39
2023-05-21T22:28:35.825Z,13.41
2023-05-21T22:31:04.116Z,13.44
2023-05-21T22:33:32.569Z,13.44
2023-05-21T22:36:00.705Z,13.42
2023-05-21T22:38:28.993Z,13.34
2023-05-21T22:40:57.089Z,13.25
2023-05-21T22:43:26.824Z,13.16
2023-05-21T22:45:55.013Z,13.14
2023-05-21T22:48:23.148Z,13.06
2023-05-21T22:50:53.594Z,13.05
2023-05-21T22:53:21.876Z,13.02
2023-05-21T22:55:50.874Z,12.99
2023-05-21T22:58:19.393Z,12.99
2023-05-21T23:00:48.260Z,13.05
2023-05-21T23:03:16.944Z,13.08
2023-05-21T23:05:45.601Z,13.16
2023-05-21T23:08:14.277Z,13.21
2023-05-21T23:10:42.471Z,13.27
2023-05-21T23:13:12.915Z,13.30
2023-05-21T23:15:43.816Z,13.30
2023-05-21T23:18:12.623Z,13.29
2023-05-21T23:20:41.357Z,13.12
2023-05-21T23:23:11.161Z,13.04
2023-05-21T23:25:39.380Z,12.98
2023-05-21T23:28:07.421Z,12.88
2023-05-21T23:30:35.611Z,12.80
2023-05-21T23:33:03.876Z,12.79
2023-05-21T23:35:31.889Z,12.79
2023-05-21T23:38:00.015Z,12.79
2023-05-21T23:40:28.084Z,12.85
2023-05-21T23:42:56.176Z,12.89
2023-05-21T23:45:24.336Z,12.93
2023-05-21T23:47:52.728Z,12.89
2023-05-21T23:50:20.890Z,12.93
2023-05-21T23:52:49.032Z,12.95
2023-05-21T23:55:17.151Z,12.96
2023-05-21T23:57:45.340Z,12.96
